sensor_id;sensor_type;location;lat;lon;timestamp;P1;durP1;ratioP1;P2;durP2;ratioP2
79456;SDS011;69494;43.654;3.884;2024-03-23T00:53:18;23.00;;;9.40;;
79456;SDS011;69494;43.654;3.884;2024-03-23T00:55:44;18.33;;;9.13;;
79456;SDS011;69494;43.654;3.884;2024-03-23T00:58:09;18.55;;;8.77;;
79456;SDS011;69494;43.654;3.884;2024-03-23T01:00:34;19.35;;;8.70;;
79456;SDS011;69494;43.654;3.884;2024-03-23T01:03:00;20.30;;;8.90;;
79456;SDS011;69494;43.654;3.884;2024-03-23T01:05:25;22.55;;;10.00;;
79456;SDS011;69494;43.654;3.884;2024-03-23T01:07:51;23.50;;;9.00;;
79456;SDS011;69494;43.654;3.884;2024-03-23T01:10:16;22.75;;;8.60;;
79456;SDS011;69494;43.654;3.884;2024-03-23T01:12:42;22.25;;;9.50;;
79456;SDS011;69494;43.654;3.884;2024-03-23T01:15:07;20.50;;;9.23;;
79456;SDS011;69494;43.654;3.884;2024-03-23T01:17:33;21.20;;;9.15;;
79456;SDS011;69494;43.654;3.884;2024-03-23T01:19:58;20.73;;;8.95;;
79456;SDS011;69494;43.654;3.884;2024-03-23T01:22:23;17.08;;;8.48;;
79456;SDS011;69494;43.654;3.884;2024-03-23T01:24:49;21.20;;;9.60;;
79456;SDS011;69494;43.654;3.884;2024-03-23T01:27:14;18.75;;;7.95;;
79456;SDS011;69494;43.654;3.884;2024-03-23T01:29:39;17.20;;;7.85;;
79456;SDS011;69494;43.654;3.884;2024-03-23T01:32:05;19.67;;;7.65;;
79456;SDS011;69494;43.654;3.884;2024-03-23T01:34:31;14.80;;;6.68;;
79456;SDS011;69494;43.654;3.884;2024-03-23T01:36:56;19.60;;;8.65;;
79456;SDS011;69494;43.654;3.884;2024-03-23T01:39:21;15.98;;;7.18;;
79456;SDS011;69494;43.654;3.884;2024-03-23T01:41:47;18.85;;;7.03;;
79456;SDS011;69494;43.654;3.884;2024-03-23T01:44:12;18.20;;;8.32;;
79456;SDS011;69494;43.654;3.884;2024-03-23T01:46:38;18.08;;;7.80;;
79456;SDS011;69494;43.654;3.884;2024-03-23T01:49:07;17.02;;;7.90;;
79456;SDS011;69494;43.654;3.884;2024-03-23T01:51:33;15.05;;;7.75;;
79456;SDS011;69494;43.654;3.884;2024-03-23T01:54:00;16.20;;;8.25;;
79456;SDS011;69494;43.654;3.884;2024-03-23T01:56:28;19.38;;;8.07;;
79456;SDS011;69494;43.654;3.884;2024-03-23T01:58:55;15.90;;;7.57;;
79456;SDS011;69494;43.654;3.884;2024-03-23T02:01:20;21.13;;;8.27;;
79456;SDS011;69494;43.654;3.884;2024-03-23T02:03:46;24.00;;;8.82;;
79456;SDS011;69494;43.654;3.884;2024-03-23T02:06:11;17.70;;;8.15;;
79456;SDS011;69494;43.654;3.884;2024-03-23T02:08:36;17.92;;;8.32;;
79456;SDS011;69494;43.654;3.884;2024-03-23T02:11:02;22.67;;;8.55;;
79456;SDS011;69494;43.654;3.884;2024-03-23T02:13:27;18.45;;;8.52;;
79456;SDS011;69494;43.654;3.884;2024-03-23T02:15:53;16.67;;;8.23;;
79456;SDS011;69494;43.654;3.884;2024-03-23T02:18:18;17.08;;;7.72;;
79456;SDS011;69494;43.654;3.884;2024-03-23T02:20:43;19.58;;;9.50;;
79456;SDS011;69494;43.654;3.884;2024-03-23T02:23:15;19.55;;;8.77;;
79456;SDS011;69494;43.654;3.884;2024-03-23T02:25:42;19.00;;;8.13;;
79456;SDS011;69494;43.654;3.884;2024-03-23T02:28:08;17.05;;;7.85;;
79456;SDS011;69494;43.654;3.884;2024-03-23T02:30:34;17.27;;;7.63;;
79456;SDS011;69494;43.654;3.884;2024-03-23T02:32:59;14.52;;;7.13;;
79456;SDS011;69494;43.654;3.884;2024-03-23T02:35:24;18.70;;;7.90;;
79456;SDS011;69494;43.654;3.884;2024-03-23T02:37:50;19.77;;;7.63;;
79456;SDS011;69494;43.654;3.884;2024-03-23T02:40:16;18.95;;;7.85;;
79456;SDS011;69494;43.654;3.884;2024-03-23T02:42:42;17.50;;;6.53;;
79456;SDS011;69494;43.654;3.884;2024-03-23T02:45:07;15.15;;;6.95;;
79456;SDS011;69494;43.654;3.884;2024-03-23T02:47:33;17.95;;;6.65;;
79456;SDS011;69494;43.654;3.884;2024-03-23T02:49:58;14.82;;;6.78;;
79456;SDS011;69494;43.654;3.884;2024-03-23T02:52:25;16.73;;;6.53;;
79456;SDS011;69494;43.654;3.884;2024-03-23T02:54:51;14.50;;;6.03;;
79456;SDS011;69494;43.654;3.884;2024-03-23T02:57:16;16.75;;;6.40;;
79456;SDS011;69494;43.654;3.884;2024-03-23T02:59:42;13.52;;;6.20;;
79456;SDS011;69494;43.654;3.884;2024-03-23T03:02:07;12.60;;;6.22;;
79456;SDS011;69494;43.654;3.884;2024-03-23T03:04:33;12.82;;;6.60;;
79456;SDS011;69494;43.654;3.884;2024-03-23T03:06:58;14.80;;;5.32;;
79456;SDS011;69494;43.654;3.884;2024-03-23T03:09:23;16.92;;;6.45;;
79456;SDS011;69494;43.654;3.884;2024-03-23T03:11:49;13.90;;;6.05;;
79456;SDS011;69494;43.654;3.884;2024-03-23T03:14:15;14.60;;;5.97;;
79456;SDS011;69494;43.654;3.884;2024-03-23T03:16:40;12.50;;;5.50;;
79456;SDS011;69494;43.654;3.884;2024-03-23T03:19:05;12.80;;;5.47;;
79456;SDS011;69494;43.654;3.884;2024-03-23T03:21:31;11.00;;;5.13;;
79456;SDS011;69494;43.654;3.884;2024-03-23T03:23:57;11.10;;;5.32;;
79456;SDS011;69494;43.654;3.884;2024-03-23T03:26:22;11.82;;;5.45;;
79456;SDS011;69494;43.654;3.884;2024-03-23T03:28:48;12.10;;;5.07;;
79456;SDS011;69494;43.654;3.884;2024-03-23T03:31:15;11.93;;;4.32;;
79456;SDS011;69494;43.654;3.884;2024-03-23T03:33:41;12.38;;;6.50;;
79456;SDS011;69494;43.654;3.884;2024-03-23T03:36:07;10.85;;;4.72;;
79456;SDS011;69494;43.654;3.884;2024-03-23T03:38:32;10.00;;;4.57;;
79456;SDS011;69494;43.654;3.884;2024-03-23T03:41:00;8.13;;;3.85;;
79456;SDS011;69494;43.654;3.884;2024-03-23T03:43:25;6.95;;;3.58;;
79456;SDS011;69494;43.654;3.884;2024-03-23T03:45:54;8.90;;;4.15;;
79456;SDS011;69494;43.654;3.884;2024-03-23T03:48:21;6.53;;;2.80;;
79456;SDS011;69494;43.654;3.884;2024-03-23T03:50:47;8.65;;;3.53;;
79456;SDS011;69494;43.654;3.884;2024-03-23T03:53:12;7.82;;;3.70;;
79456;SDS011;69494;43.654;3.884;2024-03-23T03:55:38;8.00;;;3.40;;
79456;SDS011;69494;43.654;3.884;2024-03-23T03:58:03;6.97;;;3.63;;
79456;SDS011;69494;43.654;3.884;2024-03-23T04:00:29;6.18;;;2.90;;
79456;SDS011;69494;43.654;3.884;2024-03-23T04:02:55;6.53;;;3.30;;
79456;SDS011;69494;43.654;3.884;2024-03-23T04:05:21;7.32;;;3.15;;
79456;SDS011;69494;43.654;3.884;2024-03-23T04:07:47;6.28;;;3.08;;
79456;SDS011;69494;43.654;3.884;2024-03-23T04:10:13;7.32;;;3.20;;
79456;SDS011;69494;43.654;3.884;2024-03-23T04:12:38;7.95;;;2.80;;
79456;SDS011;69494;43.654;3.884;2024-03-23T04:15:05;6.03;;;2.67;;
79456;SDS011;69494;43.654;3.884;2024-03-23T04:17:31;7.50;;;3.33;;
79456;SDS011;69494;43.654;3.884;2024-03-23T04:19:58;6.80;;;3.28;;
79456;SDS011;69494;43.654;3.884;2024-03-23T04:22:23;6.30;;;2.83;;
79456;SDS011;69494;43.654;3.884;2024-03-23T04:24:51;6.20;;;3.00;;
79456;SDS011;69494;43.654;3.884;2024-03-23T04:27:18;6.20;;;3.03;;
79456;SDS011;69494;43.654;3.884;2024-03-23T04:29:46;6.53;;;2.95;;
79456;SDS011;69494;43.654;3.884;2024-03-23T04:32:15;7.20;;;2.95;;
79456;SDS011;69494;43.654;3.884;2024-03-23T04:34:41;7.47;;;3.60;;
79456;SDS011;69494;43.654;3.884;2024-03-23T04:37:08;6.63;;;2.92;;
79456;SDS011;69494;43.654;3.884;2024-03-23T04:39:34;6.57;;;2.80;;
79456;SDS011;69494;43.654;3.884;2024-03-23T04:42:01;7.25;;;3.42;;
79456;SDS011;69494;43.654;3.884;2024-03-23T04:44:26;6.07;;;2.90;;
79456;SDS011;69494;43.654;3.884;2024-03-23T04:46:51;6.65;;;3.35;;
79456;SDS011;69494;43.654;3.884;2024-03-23T04:49:17;6.15;;;3.45;;
79456;SDS011;69494;43.654;3.884;2024-03-23T04:51:42;6.10;;;3.13;;
79456;SDS011;69494;43.654;3.884;2024-03-23T04:54:11;7.18;;;3.25;;
79456;SDS011;69494;43.654;3.884;2024-03-23T04:56:39;6.93;;;3.30;;
79456;SDS011;69494;43.654;3.884;2024-03-23T04:59:05;6.55;;;2.88;;
79456;SDS011;69494;43.654;3.884;2024-03-23T05:01:31;8.25;;;3.65;;
79456;SDS011;69494;43.654;3.884;2024-03-23T05:03:57;6.82;;;3.00;;
79456;SDS011;69494;43.654;3.884;2024-03-23T05:06:23;6.70;;;3.00;;
79456;SDS011;69494;43.654;3.884;2024-03-23T05:08:48;6.75;;;3.47;;
79456;SDS011;69494;43.654;3.884;2024-03-23T05:11:14;6.38;;;3.13;;
79456;SDS011;69494;43.654;3.884;2024-03-23T05:13:41;6.70;;;3.20;;
79456;SDS011;69494;43.654;3.884;2024-03-23T05:16:07;5.78;;;2.80;;
79456;SDS011;69494;43.654;3.884;2024-03-23T05:18:33;6.68;;;2.80;;
79456;SDS011;69494;43.654;3.884;2024-03-23T05:20:58;7.60;;;3.85;;
79456;SDS011;69494;43.654;3.884;2024-03-23T05:23:30;7.70;;;3.28;;
79456;SDS011;69494;43.654;3.884;2024-03-23T05:25:55;5.43;;;2.83;;
79456;SDS011;69494;43.654;3.884;2024-03-23T05:28:21;6.10;;;2.75;;
79456;SDS011;69494;43.654;3.884;2024-03-23T05:30:50;7.22;;;3.10;;
79456;SDS011;69494;43.654;3.884;2024-03-23T05:33:18;6.80;;;3.15;;
79456;SDS011;69494;43.654;3.884;2024-03-23T05:35:44;5.45;;;2.65;;
79456;SDS011;69494;43.654;3.884;2024-03-23T05:38:09;8.20;;;3.03;;
79456;SDS011;69494;43.654;3.884;2024-03-23T05:40:35;6.22;;;2.95;;
79456;SDS011;69494;43.654;3.884;2024-03-23T05:43:02;7.53;;;3.33;;
79456;SDS011;69494;43.654;3.884;2024-03-23T05:45:28;6.07;;;2.90;;
79456;SDS011;69494;43.654;3.884;2024-03-23T05:47:54;7.03;;;3.10;;
79456;SDS011;69494;43.654;3.884;2024-03-23T05:50:21;6.55;;;3.22;;
79456;SDS011;69494;43.654;3.884;2024-03-23T05:52:47;8.57;;;3.30;;
79456;SDS011;69494;43.654;3.884;2024-03-23T05:55:12;6.38;;;2.67;;
79456;SDS011;69494;43.654;3.884;2024-03-23T05:57:38;7.80;;;3.72;;
79456;SDS011;69494;43.654;3.884;2024-03-23T06:00:04;8.93;;;3.50;;
79456;SDS011;69494;43.654;3.884;2024-03-23T06:02:35;6.75;;;3.05;;
79456;SDS011;69494;43.654;3.884;2024-03-23T06:05:00;6.28;;;2.92;;
79456;SDS011;69494;43.654;3.884;2024-03-23T06:07:27;5.65;;;2.78;;
79456;SDS011;69494;43.654;3.884;2024-03-23T06:09:52;6.32;;;2.78;;
79456;SDS011;69494;43.654;3.884;2024-03-23T06:12:18;7.85;;;3.63;;
79456;SDS011;69494;43.654;3.884;2024-03-23T06:14:43;5.80;;;2.70;;
79456;SDS011;69494;43.654;3.884;2024-03-23T06:17:08;6.78;;;3.00;;
79456;SDS011;69494;43.654;3.884;2024-03-23T06:19:34;5.20;;;2.45;;
79456;SDS011;69494;43.654;3.884;2024-03-23T06:21:59;5.72;;;2.42;;
79456;SDS011;69494;43.654;3.884;2024-03-23T06:24:25;5.65;;;2.63;;
79456;SDS011;69494;43.654;3.884;2024-03-23T06:26:50;4.80;;;2.20;;
79456;SDS011;69494;43.654;3.884;2024-03-23T06:29:15;10.15;;;2.05;;
79456;SDS011;69494;43.654;3.884;2024-03-23T06:31:41;5.32;;;1.95;;
79456;SDS011;69494;43.654;3.884;2024-03-23T06:34:06;4.70;;;1.83;;
79456;SDS011;69494;43.654;3.884;2024-03-23T06:36:32;4.25;;;1.60;;
79456;SDS011;69494;43.654;3.884;2024-03-23T06:38:57;4.28;;;1.50;;
79456;SDS011;69494;43.654;3.884;2024-03-23T06:41:23;6.50;;;1.63;;
79456;SDS011;69494;43.654;3.884;2024-03-23T06:43:49;6.03;;;1.90;;
79456;SDS011;69494;43.654;3.884;2024-03-23T06:46:15;5.95;;;1.60;;
79456;SDS011;69494;43.654;3.884;2024-03-23T06:48:40;3.30;;;1.23;;
79456;SDS011;69494;43.654;3.884;2024-03-23T06:51:05;3.70;;;1.55;;
79456;SDS011;69494;43.654;3.884;2024-03-23T06:53:31;4.90;;;1.42;;
79456;SDS011;69494;43.654;3.884;2024-03-23T06:55:57;3.92;;;1.40;;
79456;SDS011;69494;43.654;3.884;2024-03-23T06:58:23;2.92;;;1.15;;
79456;SDS011;69494;43.654;3.884;2024-03-23T07:00:50;2.72;;;1.10;;
79456;SDS011;69494;43.654;3.884;2024-03-23T07:03:19;3.15;;;1.20;;
79456;SDS011;69494;43.654;3.884;2024-03-23T07:05:45;5.03;;;1.42;;
79456;SDS011;69494;43.654;3.884;2024-03-23T07:08:11;2.35;;;1.10;;
79456;SDS011;69494;43.654;3.884;2024-03-23T07:10:40;4.30;;;1.40;;
79456;SDS011;69494;43.654;3.884;2024-03-23T07:13:05;2.28;;;1.00;;
79456;SDS011;69494;43.654;3.884;2024-03-23T07:15:30;5.03;;;1.20;;
79456;SDS011;69494;43.654;3.884;2024-03-23T07:17:56;3.70;;;1.63;;
79456;SDS011;69494;43.654;3.884;2024-03-23T07:20:21;2.63;;;1.00;;
79456;SDS011;69494;43.654;3.884;2024-03-23T07:22:46;4.53;;;0.80;;
79456;SDS011;69494;43.654;3.884;2024-03-23T07:25:15;4.07;;;1.38;;
79456;SDS011;69494;43.654;3.884;2024-03-23T07:27:40;2.47;;;1.00;;
79456;SDS011;69494;43.654;3.884;2024-03-23T07:30:06;3.30;;;1.05;;
79456;SDS011;69494;43.654;3.884;2024-03-23T07:32:32;2.00;;;0.93;;
79456;SDS011;69494;43.654;3.884;2024-03-23T07:34:58;1.38;;;0.73;;
79456;SDS011;69494;43.654;3.884;2024-03-23T07:37:23;2.58;;;0.77;;
79456;SDS011;69494;43.654;3.884;2024-03-23T07:39:48;4.10;;;0.80;;
79456;SDS011;69494;43.654;3.884;2024-03-23T07:42:14;2.28;;;0.90;;
79456;SDS011;69494;43.654;3.884;2024-03-23T07:44:39;1.80;;;0.70;;
79456;SDS011;69494;43.654;3.884;2024-03-23T07:47:05;2.25;;;0.93;;
79456;SDS011;69494;43.654;3.884;2024-03-23T07:49:30;4.40;;;1.10;;
79456;SDS011;69494;43.654;3.884;2024-03-23T07:51:55;6.63;;;1.00;;
79456;SDS011;69494;43.654;3.884;2024-03-23T07:54:21;2.08;;;0.80;;
79456;SDS011;69494;43.654;3.884;2024-03-23T07:56:46;9.10;;;0.90;;
79456;SDS011;69494;43.654;3.884;2024-03-23T07:59:12;3.65;;;0.90;;
79456;SDS011;69494;43.654;3.884;2024-03-23T08:01:37;2.60;;;0.65;;
79456;SDS011;69494;43.654;3.884;2024-03-23T08:04:02;1.73;;;0.70;;
79456;SDS011;69494;43.654;3.884;2024-03-23T08:06:28;4.35;;;1.00;;
79456;SDS011;69494;43.654;3.884;2024-03-23T08:08:57;3.22;;;1.33;;
79456;SDS011;69494;43.654;3.884;2024-03-23T08:11:26;2.60;;;0.68;;
79456;SDS011;69494;43.654;3.884;2024-03-23T08:13:52;6.43;;;1.20;;
79456;SDS011;69494;43.654;3.884;2024-03-23T08:16:18;1.90;;;0.90;;
79456;SDS011;69494;43.654;3.884;2024-03-23T08:18:43;2.03;;;0.60;;
79456;SDS011;69494;43.654;3.884;2024-03-23T08:21:09;2.05;;;0.73;;
79456;SDS011;69494;43.654;3.884;2024-03-23T08:23:34;3.53;;;0.88;;
79456;SDS011;69494;43.654;3.884;2024-03-23T08:26:03;2.25;;;0.90;;
79456;SDS011;69494;43.654;3.884;2024-03-23T08:28:30;4.00;;;0.90;;
79456;SDS011;69494;43.654;3.884;2024-03-23T08:30:56;1.65;;;0.77;;
79456;SDS011;69494;43.654;3.884;2024-03-23T08:33:25;3.60;;;0.80;;
79456;SDS011;69494;43.654;3.884;2024-03-23T08:38:26;1.77;;;0.73;;
79456;SDS011;69494;43.654;3.884;2024-03-23T08:43:31;4.05;;;0.90;;
79456;SDS011;69494;43.654;3.884;2024-03-23T08:46:10;1.73;;;0.57;;
79456;SDS011;69494;43.654;3.884;2024-03-23T08:48:38;2.58;;;0.82;;
79456;SDS011;69494;43.654;3.884;2024-03-23T08:51:05;3.30;;;1.02;;
79456;SDS011;69494;43.654;3.884;2024-03-23T08:53:32;2.15;;;0.70;;
79456;SDS011;69494;43.654;3.884;2024-03-23T08:55:58;1.25;;;0.52;;
79456;SDS011;69494;43.654;3.884;2024-03-23T08:58:25;1.25;;;0.68;;
79456;SDS011;69494;43.654;3.884;2024-03-23T09:00:52;2.20;;;0.77;;
79456;SDS011;69494;43.654;3.884;2024-03-23T09:03:20;3.47;;;0.65;;
79456;SDS011;69494;43.654;3.884;2024-03-23T09:05:46;1.90;;;0.77;;
79456;SDS011;69494;43.654;3.884;2024-03-23T09:08:11;2.20;;;0.85;;
79456;SDS011;69494;43.654;3.884;2024-03-23T09:10:40;2.35;;;0.93;;
79456;SDS011;69494;43.654;3.884;2024-03-23T09:13:06;1.85;;;0.82;;
79456;SDS011;69494;43.654;3.884;2024-03-23T09:15:32;2.88;;;1.13;;
79456;SDS011;69494;43.654;3.884;2024-03-23T09:17:59;2.42;;;0.82;;
79456;SDS011;69494;43.654;3.884;2024-03-23T09:20:25;3.00;;;0.93;;
79456;SDS011;69494;43.654;3.884;2024-03-23T09:22:50;2.15;;;0.90;;
79456;SDS011;69494;43.654;3.884;2024-03-23T09:25:16;2.17;;;0.80;;
79456;SDS011;69494;43.654;3.884;2024-03-23T09:27:41;2.22;;;0.90;;
79456;SDS011;69494;43.654;3.884;2024-03-23T09:30:07;1.63;;;0.70;;
79456;SDS011;69494;43.654;3.884;2024-03-23T09:32:32;2.35;;;0.80;;
79456;SDS011;69494;43.654;3.884;2024-03-23T09:34:58;1.65;;;0.73;;
79456;SDS011;69494;43.654;3.884;2024-03-23T09:37:23;2.28;;;0.98;;
79456;SDS011;69494;43.654;3.884;2024-03-23T09:39:48;2.55;;;1.00;;
79456;SDS011;69494;43.654;3.884;2024-03-23T09:42:14;2.03;;;0.90;;
79456;SDS011;69494;43.654;3.884;2024-03-23T09:44:39;1.30;;;0.52;;
79456;SDS011;69494;43.654;3.884;2024-03-23T09:47:06;2.10;;;0.77;;
79456;SDS011;69494;43.654;3.884;2024-03-23T09:49:33;2.33;;;0.90;;
79456;SDS011;69494;43.654;3.884;2024-03-23T09:52:01;1.77;;;0.90;;
79456;SDS011;69494;43.654;3.884;2024-03-23T09:54:27;1.95;;;0.90;;
79456;SDS011;69494;43.654;3.884;2024-03-23T09:56:53;2.53;;;1.00;;
79456;SDS011;69494;43.654;3.884;2024-03-23T09:59:18;1.95;;;0.70;;
79456;SDS011;69494;43.654;3.884;2024-03-23T10:01:44;2.20;;;0.75;;
79456;SDS011;69494;43.654;3.884;2024-03-23T10:04:09;1.98;;;0.80;;
79456;SDS011;69494;43.654;3.884;2024-03-23T10:06:35;2.10;;;0.70;;
79456;SDS011;69494;43.654;3.884;2024-03-23T10:09:01;2.72;;;0.73;;
79456;SDS011;69494;43.654;3.884;2024-03-23T10:11:27;2.83;;;0.90;;
79456;SDS011;69494;43.654;3.884;2024-03-23T10:13:54;1.55;;;0.70;;
79456;SDS011;69494;43.654;3.884;2024-03-23T10:16:22;2.28;;;0.73;;
79456;SDS011;69494;43.654;3.884;2024-03-23T10:18:48;1.17;;;0.52;;
79456;SDS011;69494;43.654;3.884;2024-03-23T10:21:14;1.40;;;0.70;;
79456;SDS011;69494;43.654;3.884;2024-03-23T10:23:41;1.23;;;0.60;;
79456;SDS011;69494;43.654;3.884;2024-03-23T10:28:58;1.27;;;0.55;;
79456;SDS011;69494;43.654;3.884;2024-03-23T10:31:28;4.40;;;0.98;;
79456;SDS011;69494;43.654;3.884;2024-03-23T10:33:54;0.95;;;0.50;;
79456;SDS011;69494;43.654;3.884;2024-03-23T10:36:20;0.77;;;0.40;;
79456;SDS011;69494;43.654;3.884;2024-03-23T10:41:12;1.08;;;0.40;;
79456;SDS011;69494;43.654;3.884;2024-03-23T10:43:38;1.92;;;0.55;;
79456;SDS011;69494;43.654;3.884;2024-03-23T10:46:04;1.52;;;0.57;;
79456;SDS011;69494;43.654;3.884;2024-03-23T10:48:33;3.83;;;0.82;;
79456;SDS011;69494;43.654;3.884;2024-03-23T10:50:59;0.88;;;0.35;;
79456;SDS011;69494;43.654;3.884;2024-03-23T10:53:28;1.73;;;0.60;;
79456;SDS011;69494;43.654;3.884;2024-03-23T10:55:54;0.85;;;0.47;;
79456;SDS011;69494;43.654;3.884;2024-03-23T10:58:26;1.13;;;0.40;;
79456;SDS011;69494;43.654;3.884;2024-03-23T11:00:56;1.55;;;0.63;;
79456;SDS011;69494;43.654;3.884;2024-03-23T11:03:35;1.40;;;0.47;;
79456;SDS011;69494;43.654;3.884;2024-03-23T11:06:07;1.75;;;0.45;;
79456;SDS011;69494;43.654;3.884;2024-03-23T11:13:44;1.17;;;0.80;;
79456;SDS011;69494;43.654;3.884;2024-03-23T11:16:22;3.20;;;1.08;;
79456;SDS011;69494;43.654;3.884;2024-03-23T11:18:48;0.90;;;0.50;;
79456;SDS011;69494;43.654;3.884;2024-03-23T11:21:59;0.47;;;0.25;;
79456;SDS011;69494;43.654;3.884;2024-03-23T11:24:19;0.93;;;0.50;;
79456;SDS011;69494;43.654;3.884;2024-03-23T11:26:45;1.02;;;0.43;;
79456;SDS011;69494;43.654;3.884;2024-03-23T11:29:12;1.75;;;0.70;;
79456;SDS011;69494;43.654;3.884;2024-03-23T11:31:52;2.05;;;0.60;;
79456;SDS011;69494;43.654;3.884;2024-03-23T11:34:19;1.00;;;0.43;;
79456;SDS011;69494;43.654;3.884;2024-03-23T11:36:45;1.08;;;0.50;;
79456;SDS011;69494;43.654;3.884;2024-03-23T11:39:15;2.50;;;0.60;;
79456;SDS011;69494;43.654;3.884;2024-03-23T11:41:48;1.77;;;0.65;;
79456;SDS011;69494;43.654;3.884;2024-03-23T11:44:18;2.58;;;0.52;;
79456;SDS011;69494;43.654;3.884;2024-03-23T11:46:45;2.25;;;0.68;;
79456;SDS011;69494;43.654;3.884;2024-03-23T11:49:23;3.30;;;0.60;;
79456;SDS011;69494;43.654;3.884;2024-03-23T11:51:52;1.42;;;0.65;;
79456;SDS011;69494;43.654;3.884;2024-03-23T11:54:23;0.85;;;0.47;;
79456;SDS011;69494;43.654;3.884;2024-03-23T11:57:04;1.63;;;0.70;;
79456;SDS011;69494;43.654;3.884;2024-03-23T11:59:39;1.95;;;0.50;;
79456;SDS011;69494;43.654;3.884;2024-03-23T12:02:12;0.75;;;0.52;;
79456;SDS011;69494;43.654;3.884;2024-03-23T12:04:41;4.90;;;0.88;;
79456;SDS011;69494;43.654;3.884;2024-03-23T12:09:40;1.35;;;0.50;;
79456;SDS011;69494;43.654;3.884;2024-03-23T12:12:10;2.53;;;0.82;;
79456;SDS011;69494;43.654;3.884;2024-03-23T12:14:36;1.45;;;0.43;;
79456;SDS011;69494;43.654;3.884;2024-03-23T12:17:10;1.23;;;0.55;;
79456;SDS011;69494;43.654;3.884;2024-03-23T12:19:40;2.15;;;0.80;;
79456;SDS011;69494;43.654;3.884;2024-03-23T12:24:33;1.75;;;0.60;;
79456;SDS011;69494;43.654;3.884;2024-03-23T12:27:02;1.70;;;0.45;;
79456;SDS011;69494;43.654;3.884;2024-03-23T12:29:32;4.00;;;0.75;;
79456;SDS011;69494;43.654;3.884;2024-03-23T12:32:01;2.38;;;0.60;;
79456;SDS011;69494;43.654;3.884;2024-03-23T12:34:27;1.85;;;0.50;;
79456;SDS011;69494;43.654;3.884;2024-03-23T12:36:55;1.73;;;0.50;;
79456;SDS011;69494;43.654;3.884;2024-03-23T12:39:21;2.25;;;0.82;;
79456;SDS011;69494;43.654;3.884;2024-03-23T12:41:46;3.35;;;0.77;;
79456;SDS011;69494;43.654;3.884;2024-03-23T12:44:12;2.45;;;0.90;;
79456;SDS011;69494;43.654;3.884;2024-03-23T12:46:38;2.13;;;0.60;;
79456;SDS011;69494;43.654;3.884;2024-03-23T12:49:04;2.60;;;0.70;;
79456;SDS011;69494;43.654;3.884;2024-03-23T12:51:30;2.28;;;0.50;;
79456;SDS011;69494;43.654;3.884;2024-03-23T12:53:56;1.55;;;0.45;;
79456;SDS011;69494;43.654;3.884;2024-03-23T12:56:21;1.20;;;0.65;;
79456;SDS011;69494;43.654;3.884;2024-03-23T12:58:47;2.53;;;0.47;;
79456;SDS011;69494;43.654;3.884;2024-03-23T13:01:16;3.60;;;0.60;;
79456;SDS011;69494;43.654;3.884;2024-03-23T13:03:42;3.40;;;1.08;;
79456;SDS011;69494;43.654;3.884;2024-03-23T13:06:09;2.42;;;0.80;;
79456;SDS011;69494;43.654;3.884;2024-03-23T13:08:35;1.92;;;0.70;;
79456;SDS011;69494;43.654;3.884;2024-03-23T13:11:01;1.65;;;0.68;;
79456;SDS011;69494;43.654;3.884;2024-03-23T13:13:26;2.95;;;0.85;;
79456;SDS011;69494;43.654;3.884;2024-03-23T13:15:51;4.93;;;1.00;;
79456;SDS011;69494;43.654;3.884;2024-03-23T13:18:17;5.68;;;0.95;;
79456;SDS011;69494;43.654;3.884;2024-03-23T13:20:42;4.43;;;1.15;;
79456;SDS011;69494;43.654;3.884;2024-03-23T13:23:08;1.83;;;0.63;;
79456;SDS011;69494;43.654;3.884;2024-03-23T13:25:33;2.28;;;0.80;;
79456;SDS011;69494;43.654;3.884;2024-03-23T13:27:59;2.33;;;0.68;;
79456;SDS011;69494;43.654;3.884;2024-03-23T13:30:26;4.22;;;0.75;;
79456;SDS011;69494;43.654;3.884;2024-03-23T13:32:51;2.13;;;0.60;;
79456;SDS011;69494;43.654;3.884;2024-03-23T13:35:16;3.08;;;0.90;;
79456;SDS011;69494;43.654;3.884;2024-03-23T13:37:42;1.85;;;0.60;;
79456;SDS011;69494;43.654;3.884;2024-03-23T13:40:08;2.40;;;0.70;;
79456;SDS011;69494;43.654;3.884;2024-03-23T13:42:34;1.17;;;0.43;;
79456;SDS011;69494;43.654;3.884;2024-03-23T13:44:59;2.55;;;0.65;;
79456;SDS011;69494;43.654;3.884;2024-03-23T13:47:24;1.50;;;0.38;;
79456;SDS011;69494;43.654;3.884;2024-03-23T13:49:50;2.45;;;0.43;;
79456;SDS011;69494;43.654;3.884;2024-03-23T13:52:15;2.65;;;0.73;;
79456;SDS011;69494;43.654;3.884;2024-03-23T13:54:41;5.53;;;1.00;;
79456;SDS011;69494;43.654;3.884;2024-03-23T13:57:11;2.53;;;0.50;;
79456;SDS011;69494;43.654;3.884;2024-03-23T13:59:36;2.58;;;0.82;;
79456;SDS011;69494;43.654;3.884;2024-03-23T14:02:02;4.55;;;1.10;;
79456;SDS011;69494;43.654;3.884;2024-03-23T14:04:27;3.42;;;0.93;;
79456;SDS011;69494;43.654;3.884;2024-03-23T14:06:53;5.32;;;1.35;;
79456;SDS011;69494;43.654;3.884;2024-03-23T14:09:19;2.90;;;0.85;;
79456;SDS011;69494;43.654;3.884;2024-03-23T14:11:47;2.60;;;0.60;;
79456;SDS011;69494;43.654;3.884;2024-03-23T14:14:13;2.22;;;0.52;;
79456;SDS011;69494;43.654;3.884;2024-03-23T14:16:41;4.10;;;0.90;;
79456;SDS011;69494;43.654;3.884;2024-03-23T14:19:07;4.45;;;1.00;;
79456;SDS011;69494;43.654;3.884;2024-03-23T14:21:32;2.10;;;0.60;;
79456;SDS011;69494;43.654;3.884;2024-03-23T14:24:00;7.35;;;1.17;;
79456;SDS011;69494;43.654;3.884;2024-03-23T14:26:26;2.15;;;0.60;;
79456;SDS011;69494;43.654;3.884;2024-03-23T14:28:52;3.88;;;0.88;;
79456;SDS011;69494;43.654;3.884;2024-03-23T14:31:17;2.05;;;0.75;;
79456;SDS011;69494;43.654;3.884;2024-03-23T14:33:43;2.08;;;0.90;;
79456;SDS011;69494;43.654;3.884;2024-03-23T14:36:14;3.70;;;0.90;;
79456;SDS011;69494;43.654;3.884;2024-03-23T14:38:41;6.38;;;1.02;;
79456;SDS011;69494;43.654;3.884;2024-03-23T14:41:07;6.25;;;1.08;;
79456;SDS011;69494;43.654;3.884;2024-03-23T14:43:32;1.95;;;0.65;;
79456;SDS011;69494;43.654;3.884;2024-03-23T14:46:14;3.95;;;0.90;;
79456;SDS011;69494;43.654;3.884;2024-03-23T14:48:41;2.53;;;0.50;;
79456;SDS011;69494;43.654;3.884;2024-03-23T14:51:08;2.30;;;0.93;;
79456;SDS011;69494;43.654;3.884;2024-03-23T14:53:45;3.50;;;1.35;;
79456;SDS011;69494;43.654;3.884;2024-03-23T14:56:10;5.32;;;1.70;;
79456;SDS011;69494;43.654;3.884;2024-03-23T14:58:38;3.80;;;1.23;;
79456;SDS011;69494;43.654;3.884;2024-03-23T15:01:04;1.98;;;0.52;;
79456;SDS011;69494;43.654;3.884;2024-03-23T15:03:34;3.67;;;1.20;;
79456;SDS011;69494;43.654;3.884;2024-03-23T15:05:59;3.40;;;0.80;;
79456;SDS011;69494;43.654;3.884;2024-03-23T15:10:53;3.03;;;0.77;;
79456;SDS011;69494;43.654;3.884;2024-03-23T15:13:18;2.17;;;0.73;;
79456;SDS011;69494;43.654;3.884;2024-03-23T15:15:44;7.78;;;1.30;;
79456;SDS011;69494;43.654;3.884;2024-03-23T15:18:13;2.83;;;0.85;;
79456;SDS011;69494;43.654;3.884;2024-03-23T15:20:41;5.03;;;1.20;;
79456;SDS011;69494;43.654;3.884;2024-03-23T15:23:07;3.47;;;1.00;;
79456;SDS011;69494;43.654;3.884;2024-03-23T15:25:33;3.92;;;0.90;;
79456;SDS011;69494;43.654;3.884;2024-03-23T15:27:58;6.22;;;1.13;;
79456;SDS011;69494;43.654;3.884;2024-03-23T15:30:25;9.60;;;1.10;;
79456;SDS011;69494;43.654;3.884;2024-03-23T15:32:51;4.93;;;0.65;;
79456;SDS011;69494;43.654;3.884;2024-03-23T15:35:17;2.80;;;0.73;;
79456;SDS011;69494;43.654;3.884;2024-03-23T15:37:42;4.57;;;1.00;;
79456;SDS011;69494;43.654;3.884;2024-03-23T15:40:08;5.00;;;0.63;;
79456;SDS011;69494;43.654;3.884;2024-03-23T15:47:25;1.88;;;0.60;;
79456;SDS011;69494;43.654;3.884;2024-03-23T15:49:51;6.15;;;1.40;;
79456;SDS011;69494;43.654;3.884;2024-03-23T15:52:18;1.08;;;0.43;;
79456;SDS011;69494;43.654;3.884;2024-03-23T15:54:44;2.50;;;0.80;;
79456;SDS011;69494;43.654;3.884;2024-03-23T15:57:09;2.08;;;0.55;;
79456;SDS011;69494;43.654;3.884;2024-03-23T15:59:34;3.58;;;0.70;;
79456;SDS011;69494;43.654;3.884;2024-03-23T16:02:01;2.63;;;0.55;;